Time;durP1;ratioP1;P1;durP2;ratioP2;P2;SDS_P1;SDS_P2;PMS_P1;PMS_P2;Temp;Humidity;BMP_temperature;BMP_pressure;BME280_temperature;BME280_humidity;BME280_pressure;Samples;Min_cycle;Max_cycle;Signal;HPM_P1;HPM_P2
2023/02/03 00:00:55;;;;;;;18.45;9.05;;;;;;;3.75;69.28;99701.13;5002910;28;20026;-67
2023/02/03 00:03:20;;;;;;;12.68;7.07;;;;;;;3.84;69.23;99703.28;5013264;28;20026;-68
2023/02/03 00:05:46;;;;;;;9.10;6.57;;;;;;;3.73;69.25;99699.75;4993294;28;20041;-68
2023/02/03 00:08:13;;;;;;;13.00;7.40;;;;;;;3.64;69.58;99710.56;4993790;28;20103;-67
2023/02/03 00:10:39;;;;;;;28.48;15.35;;;;;;;3.81;69.80;99721.28;4992889;28;20506;-67
2023/02/03 00:13:05;;;;;;;28.08;15.82;;;;;;;3.74;69.32;99718.84;4972803;28;20023;-68
2023/02/03 00:15:30;;;;;;;27.40;14.65;;;;;;;3.88;69.36;99718.22;4974034;28;20497;-68
2023/02/03 00:17:56;;;;;;;19.67;12.15;;;;;;;3.88;69.25;99691.34;4973129;28;20089;-68
2023/02/03 00:20:21;;;;;;;21.55;11.18;;;;;;;3.91;68.91;99698.28;4973932;28;20078;-68
2023/02/03 00:22:47;;;;;;;18.63;12.02;;;;;;;4.07;68.83;99691.53;4974049;28;20080;-67
2023/02/03 00:25:13;;;;;;;17.05;9.77;;;;;;;4.00;68.87;99676.34;4978136;28;20110;-68
2023/02/03 00:27:38;;;;;;;37.40;17.08;;;;;;;3.93;67.51;99693.28;4991362;28;20404;-67
2023/02/03 00:30:04;;;;;;;38.22;17.60;;;;;;;3.85;68.02;99704.94;4975063;28;20031;-67
2023/02/03 00:32:30;;;;;;;18.42;11.38;;;;;;;3.77;68.41;99709.13;4972548;28;20019;-67
2023/02/03 00:34:55;;;;;;;9.23;5.43;;;;;;;3.66;68.88;99708.34;4973783;28;20023;-67
2023/02/03 00:37:22;;;;;;;10.63;5.88;;;;;;;3.69;67.69;99707.78;4973664;28;20062;-67
2023/02/03 00:39:48;;;;;;;9.02;5.43;;;;;;;3.49;68.69;99716.97;4978231;28;20025;-67
2023/02/03 00:42:14;;;;;;;7.28;5.22;;;;;;;3.49;68.83;99706.72;4990655;28;20458;-69
2023/02/03 00:44:39;;;;;;;9.05;5.45;;;;;;;3.51;68.56;99714.75;4992352;28;20032;-67
2023/02/03 00:47:05;;;;;;;7.15;5.20;;;;;;;3.45;68.15;99713.94;4992850;28;20054;-67
2023/02/03 00:49:31;;;;;;;6.30;4.85;;;;;;;3.31;68.45;99704.59;4992211;28;20106;-67
2023/02/03 00:51:56;;;;;;;8.93;5.22;;;;;;;3.21;68.10;99713.75;4991476;28;20065;-67
2023/02/03 00:54:22;;;;;;;12.35;6.07;;;;;;;3.21;68.98;99709.03;4977910;28;20026;-67
2023/02/03 00:56:47;;;;;;;7.55;4.47;;;;;;;3.12;69.44;99713.47;4972081;28;20034;-67
2023/02/03 00:59:12;;;;;;;6.47;4.47;;;;;;;3.18;67.91;99708.75;4989580;28;20022;-67
2023/02/03 01:01:38;;;;;;;6.38;4.55;;;;;;;3.14;67.54;99702.97;4986299;28;20494;-67
2023/02/03 01:04:04;;;;;;;6.65;4.30;;;;;;;3.23;67.12;99704.03;4973150;28;20502;-67
2023/02/03 01:06:29;;;;;;;6.28;4.57;;;;;;;3.19;67.39;99702.13;4973053;28;20045;-68
2023/02/03 01:08:55;;;;;;;5.57;4.05;;;;;;;3.26;66.86;99696.28;4991086;28;20022;-67
2023/02/03 01:11:23;;;;;;;7.32;4.35;;;;;;;3.40;65.92;99691.00;4990873;28;20065;-67
2023/02/03 01:13:50;;;;;;;8.40;4.80;;;;;;;3.32;66.40;99696.03;4988631;28;20077;-67
2023/02/03 01:16:18;;;;;;;6.82;5.05;;;;;;;3.36;65.34;99696.28;4972970;28;20110;-67
2023/02/03 01:18:44;;;;;;;8.05;4.60;;;;;;;3.47;66.09;99700.66;4971747;28;20027;-67
2023/02/03 01:21:18;;;;;;;10.57;5.70;;;;;;;3.48;66.23;99713.38;4972129;28;20461;-67
2023/02/03 01:23:44;;;;;;;6.13;4.90;;;;;;;3.50;66.44;99713.94;4972919;28;20034;-67
2023/02/03 01:26:14;;;;;;;5.55;4.13;;;;;;;3.33;67.77;99725.34;4979798;28;20085;-67
2023/02/03 01:28:40;;;;;;;9.57;5.13;;;;;;;3.30;68.82;99734.16;4991381;28;20057;-67
2023/02/03 01:31:14;;;;;;;10.18;5.97;;;;;;;3.23;69.58;99739.19;4992100;28;20029;-67
2023/02/03 01:33:40;;;;;;;7.20;5.20;;;;;;;3.24;70.40;99738.06;4992146;28;20512;-67
2023/02/03 01:36:08;;;;;;;10.75;6.05;;;;;;;3.20;70.68;99742.50;4973724;28;20073;-67
2023/02/03 01:38:35;;;;;;;9.00;5.40;;;;;;;3.17;71.75;99740.28;4984800;28;20112;-67
2023/02/03 01:41:01;;;;;;;7.55;4.65;;;;;;;3.08;72.13;99728.97;4992005;28;20077;-67
2023/02/03 01:43:34;;;;;;;8.32;5.13;;;;;;;3.01;72.53;99728.41;4990517;28;20030;-67
2023/02/03 01:46:03;;;;;;;9.68;5.00;;;;;;;3.01;73.16;99725.66;4991880;28;20048;-67
2023/02/03 01:48:32;;;;;;;8.38;4.90;;;;;;;3.02;73.58;99719.03;4990122;28;20528;-67
2023/02/03 01:51:01;;;;;;;8.70;4.53;;;;;;;3.00;73.34;99721.22;4974127;28;20035;-68
2023/02/03 01:53:27;;;;;;;7.57;4.55;;;;;;;2.94;74.03;99737.81;4972438;28;20033;-68
2023/02/03 01:55:52;;;;;;;6.45;4.18;;;;;;;3.02;74.31;99744.72;4972469;28;20446;-67
2023/02/03 01:58:28;;;;;;;6.28;4.20;;;;;;;2.94;74.83;99759.94;4991010;28;20034;-67
2023/02/03 02:00:56;;;;;;;6.95;4.47;;;;;;;2.92;75.12;99753.00;4991898;28;20093;-67
2023/02/03 02:03:25;;;;;;;8.65;4.50;;;;;;;2.94;75.58;99756.31;4989909;28;20041;-67
2023/02/03 02:06:01;;;;;;;8.07;5.00;;;;;;;2.95;75.71;99756.06;4990411;28;20023;-67
2023/02/03 02:08:28;;;;;;;5.68;4.13;;;;;;;2.87;75.58;99751.06;4991663;28;20513;-67
2023/02/03 02:10:54;;;;;;;10.07;5.28;;;;;;;2.88;76.31;99757.44;4992117;28;20457;-67
2023/02/03 02:13:21;;;;;;;6.72;4.15;;;;;;;2.85;76.62;99753.28;4990590;28;20504;-67
2023/02/03 02:15:49;;;;;;;6.95;4.75;;;;;;;3.00;76.52;99752.47;4976367;28;20030;-67
2023/02/03 02:18:27;;;;;;;8.65;5.10;;;;;;;2.91;76.83;99751.34;4976238;28;20033;-67
2023/02/03 02:21:31;;;;;;;10.05;4.82;;;;;;;2.87;77.02;99753.84;4976267;28;20027;-67
2023/02/03 02:24:38;;;;;;;6.13;4.20;;;;;;;2.93;77.24;99758.28;4919520;29;20478;-67
2023/02/03 02:27:16;;;;;;;8.43;4.63;;;;;;;2.89;78.11;99761.88;4992940;28;20437;-67
2023/02/03 02:30:15;;;;;;;7.70;4.38;;;;;;;2.86;78.37;99779.81;4994889;28;20026;-67
2023/02/03 02:32:44;;;;;;;6.07;3.45;;;;;;;2.80;77.91;99778.97;4993522;28;20054;-67
2023/02/03 02:35:09;;;;;;;6.40;3.83;;;;;;;2.82;78.40;99775.97;4995497;28;20105;-67
2023/02/03 02:37:48;;;;;;;7.80;3.75;;;;;;;2.80;78.60;99772.66;4995406;28;20121;-67
2023/02/03 02:40:45;;;;;;;7.40;3.72;;;;;;;2.85;77.82;99772.63;4982902;28;20109;-67
2023/02/03 02:43:28;;;;;;;8.75;5.05;;;;;;;2.85;77.79;99777.34;4989579;28;20046;-67
2023/02/03 02:46:26;;;;;;;7.20;4.75;;;;;;;2.84;78.28;99776.50;4993155;28;20053;-67
2023/02/03 02:49:03;;;;;;;5.10;4.03;;;;;;;2.90;77.60;99760.75;4991032;28;20096;-67
2023/02/03 02:51:31;;;;;;;5.30;3.88;;;;;;;2.89;77.62;99765.44;4995157;28;20026;-67
2023/02/03 02:54:04;;;;;;;4.60;3.10;;;;;;;2.88;76.88;99766.56;4984417;28;20025;-68
2023/02/03 02:56:33;;;;;;;5.13;3.65;;;;;;;2.88;77.19;99765.75;4979451;28;20037;-68
2023/02/03 02:59:01;;;;;;;5.18;3.05;;;;;;;2.85;77.09;99772.63;4993488;28;20386;-67
2023/02/03 03:01:26;;;;;;;3.40;3.10;;;;;;;2.76;77.14;99771.53;4990940;28;20064;-67
2023/02/03 03:03:52;;;;;;;6.13;3.58;;;;;;;2.74;77.53;99773.75;4985299;28;20054;-68
2023/02/03 03:06:28;;;;;;;3.17;2.88;;;;;;;2.72;77.21;99768.50;4975348;28;20086;-67
2023/02/03 03:08:57;;;;;;;6.70;3.35;;;;;;;2.70;76.87;99767.94;4994199;28;20042;-68
2023/02/03 03:11:30;;;;;;;4.78;3.70;;;;;;;2.71;76.77;99783.38;4992954;28;20149;-67
2023/02/03 03:13:57;;;;;;;4.32;2.63;;;;;;;2.65;76.81;99785.34;4993448;28;20102;-67
2023/02/03 03:16:25;;;;;;;6.32;2.85;;;;;;;2.62;77.27;99785.88;4994050;28;20034;-68
2023/02/03 03:19:04;;;;;;;2.97;2.55;;;;;;;2.59;76.90;99789.19;4993248;28;20038;-68
2023/02/03 03:21:44;;;;;;;4.88;2.53;;;;;;;2.59;76.47;99789.19;4987600;28;20030;-67
2023/02/03 03:24:14;;;;;;;5.00;2.97;;;;;;;2.60;75.79;99812.13;4973800;28;20031;-68
2023/02/03 03:27:03;;;;;;;3.08;2.67;;;;;;;2.58;75.98;99809.63;4982520;28;20023;-68
2023/02/03 03:29:46;;;;;;;3.42;2.55;;;;;;;2.61;74.58;99811.03;4974963;28;20031;-67
2023/02/03 03:32:12;;;;;;;3.80;2.72;;;;;;;2.67;74.28;99812.69;4975016;28;20034;-67
2023/02/03 03:34:39;;;;;;;4.22;2.92;;;;;;;2.65;74.41;99812.97;4974842;28;20038;-68
2023/02/03 03:37:32;;;;;;;3.00;2.20;;;;;;;2.61;74.19;99817.38;4992712;28;20495;-68
2023/02/03 03:40:00;;;;;;;4.57;3.30;;;;;;;2.60;73.86;99824.00;4981976;28;20042;-67
2023/02/03 03:42:47;;;;;;;5.78;3.67;;;;;;;2.63;73.85;99836.44;4990570;28;20034;-68
2023/02/03 03:45:25;;;;;;;6.00;4.50;;;;;;;2.64;73.91;99825.09;4993989;28;20047;-68
2023/02/03 03:48:03;;;;;;;4.22;3.28;;;;;;;2.66;73.75;99824.84;4992831;28;20034;-67
2023/02/03 03:50:33;;;;;;;6.93;3.08;;;;;;;2.53;73.62;99829.78;4992005;28;20040;-67
2023/02/03 03:53:01;;;;;;;4.70;3.03;;;;;;;2.57;73.91;99832.84;4976133;28;20046;-67
2023/02/03 03:55:30;;;;;;;5.85;3.22;;;;;;;2.50;74.05;99848.81;4976187;28;20034;-68
2023/02/03 03:58:02;;;;;;;5.85;4.13;;;;;;;2.46;75.05;99851.28;4993960;28;20071;-68
2023/02/03 04:00:31;;;;;;;3.35;2.78;;;;;;;2.44;74.88;99861.78;4992398;28;20024;-68
2023/02/03 04:03:01;;;;;;;3.55;2.72;;;;;;;2.35;75.43;99863.41;4993014;28;20030;-68
2023/02/03 04:05:27;;;;;;;3.25;2.72;;;;;;;2.24;76.49;99868.06;4972972;28;20528;-67
2023/02/03 04:07:52;;;;;;;3.13;2.83;;;;;;;2.16;76.81;99860.28;4973028;28;20039;-68
2023/02/03 04:10:34;;;;;;;7.63;5.47;;;;;;;2.15;77.37;99851.19;4978204;28;20562;-67
2023/02/03 04:13:00;;;;;;;4.30;2.90;;;;;;;2.20;77.38;99850.38;4979545;28;20035;-67
2023/02/03 04:15:26;;;;;;;5.25;3.40;;;;;;;2.14;77.46;99841.25;4988054;28;20391;-68
2023/02/03 04:17:53;;;;;;;5.57;4.07;;;;;;;2.10;77.37;99842.88;4974078;28;20030;-68
2023/02/03 04:20:20;;;;;;;4.15;3.53;;;;;;;2.15;77.10;99839.31;4972784;28;20034;-67
2023/02/03 04:22:45;;;;;;;3.10;2.78;;;;;;;2.16;76.66;99843.72;4974182;28;20027;-67
2023/02/03 04:25:11;;;;;;;3.17;2.65;;;;;;;2.23;75.76;99842.41;4977993;28;20033;-68
2023/02/03 04:27:37;;;;;;;3.72;3.22;;;;;;;2.30;75.85;99852.34;4974041;28;20093;-68
2023/02/03 04:30:06;;;;;;;5.78;3.85;;;;;;;2.30;76.10;99855.97;4981639;28;20037;-67
2023/02/03 04:32:34;;;;;;;7.25;3.58;;;;;;;2.31;75.53;99865.91;4992660;28;20394;-67
2023/02/03 04:35:00;;;;;;;9.32;4.78;;;;;;;2.34;75.91;99856.22;4993271;28;20462;-67
2023/02/03 04:37:25;;;;;;;5.70;3.92;;;;;;;2.30;76.12;99867.00;4990574;28;20061;-68
2023/02/03 04:39:54;;;;;;;4.22;3.53;;;;;;;2.33;75.93;99865.59;4978128;28;20029;-68
2023/02/03 04:42:21;;;;;;;6.90;4.13;;;;;;;2.36;75.74;99871.41;4991858;28;20069;-68
2023/02/03 04:44:47;;;;;;;7.15;4.50;;;;;;;2.32;75.52;99870.31;4991163;28;20061;-68
2023/02/03 04:47:12;;;;;;;5.90;4.18;;;;;;;2.32;75.13;99869.47;4992923;28;20561;-67
2023/02/03 04:49:38;;;;;;;8.80;4.07;;;;;;;2.24;75.67;99865.31;4991529;28;20088;-68
2023/02/03 04:52:04;;;;;;;4.30;3.22;;;;;;;2.30;75.14;99875.28;4992891;28;20037;-68
2023/02/03 04:54:30;;;;;;;5.35;3.40;;;;;;;2.29;75.00;99883.81;4983277;28;20125;-68
2023/02/03 04:56:55;;;;;;;5.70;3.35;;;;;;;2.26;75.42;99881.59;4991565;28;20080;-67
2023/02/03 04:59:21;;;;;;;6.57;4.35;;;;;;;2.26;75.12;99887.13;4992921;28;20105;-68
2023/02/03 05:01:46;;;;;;;8.80;5.82;;;;;;;2.19;74.99;99882.66;4989641;28;20038;-67
2023/02/03 05:04:11;;;;;;;19.65;10.20;;;;;;;2.20;73.93;99884.31;4992685;28;20486;-68
2023/02/03 05:06:37;;;;;;;15.25;9.55;;;;;;;2.28;73.71;99888.50;4981483;28;20039;-67
2023/02/03 05:09:03;;;;;;;19.10;9.80;;;;;;;2.29;73.41;99887.41;4974546;28;20027;-69
2023/02/03 05:11:28;;;;;;;22.45;13.00;;;;;;;2.22;74.02;99892.34;4991750;28;20113;-68
2023/02/03 05:13:54;;;;;;;21.77;11.65;;;;;;;2.18;73.69;99892.06;4991884;28;20030;-68
2023/02/03 05:16:20;;;;;;;21.58;10.95;;;;;;;2.12;73.71;99892.28;4992390;28;20043;-68
2023/02/03 05:18:45;;;;;;;22.35;12.60;;;;;;;2.03;73.68;99884.50;4991232;28;20058;-68
2023/02/03 05:21:11;;;;;;;15.82;8.93;;;;;;;2.02;74.07;99882.84;4992318;28;20026;-68
2023/02/03 05:23:36;;;;;;;7.93;5.50;;;;;;;1.85;74.59;99899.59;4983288;28;20070;-68
2023/02/03 05:26:02;;;;;;;11.52;6.30;;;;;;;1.78;74.54;99897.06;4971860;28;20046;-68
2023/02/03 05:28:28;;;;;;;23.13;8.65;;;;;;;1.73;74.48;99901.72;4987734;28;20034;-68
2023/02/03 05:30:53;;;;;;;20.27;8.10;;;;;;;1.68;74.64;99906.09;4972591;28;20030;-69
2023/02/03 05:33:19;;;;;;;17.55;7.80;;;;;;;1.65;74.89;99916.84;4989604;28;20450;-68
2023/02/03 05:35:44;;;;;;;9.98;6.30;;;;;;;1.60;75.13;99917.63;4992319;28;20125;-68
2023/02/03 05:38:10;;;;;;;14.60;5.47;;;;;;;1.57;74.97;99926.44;4985250;28;20031;-68
2023/02/03 05:43:23;;;;;;;12.52;6.25;;;;;;;1.50;75.00;99934.94;4989341;28;20421;-68
2023/02/03 05:45:48;;;;;;;13.00;7.10;;;;;;;1.54;75.00;99936.06;4979406;28;20133;-68
2023/02/03 05:48:14;;;;;;;13.68;9.02;;;;;;;1.45;75.33;99940.41;4969136;28;20094;-69
2023/02/03 05:50:39;;;;;;;14.25;8.60;;;;;;;1.37;75.14;99938.13;4971739;28;20490;-69
2023/02/03 05:53:06;;;;;;;13.32;8.25;;;;;;;1.42;75.38;99951.94;4988606;28;20030;-72
2023/02/03 05:55:32;;;;;;;11.68;8.10;;;;;;;1.47;74.37;99945.66;4988792;28;20034;-72
2023/02/03 05:58:00;;;;;;;11.55;7.70;;;;;;;1.51;74.19;99955.88;4989411;28;20490;-68
2023/02/03 06:00:27;;;;;;;8.88;6.75;;;;;;;1.51;73.82;99950.38;4988051;28;20033;-68
2023/02/03 06:02:54;;;;;;;14.93;6.53;;;;;;;1.56;73.77;99959.78;4986086;28;20044;-67
2023/02/03 06:05:21;;;;;;;15.95;10.38;;;;;;;1.53;74.13;99964.72;4980721;28;20038;-66
2023/02/03 06:07:48;;;;;;;23.77;14.00;;;;;;;1.50;74.79;99957.00;4976046;28;20107;-68
2023/02/03 06:10:14;;;;;;;13.43;6.93;;;;;;;1.44;74.18;99955.25;4986739;28;20030;-68
2023/02/03 06:12:39;;;;;;;10.73;4.63;;;;;;;1.57;74.15;99958.69;4988325;28;20037;-68
2023/02/03 06:15:05;;;;;;;18.75;10.38;;;;;;;1.66;73.84;99955.19;4988337;28;20023;-69
2023/02/03 06:17:31;;;;;;;25.33;12.32;;;;;;;1.91;72.21;99948.19;4978051;28;20409;-68
2023/02/03 06:19:56;;;;;;;11.30;7.25;;;;;;;2.18;70.35;99957.47;4975293;28;20359;-68
2023/02/03 06:22:22;;;;;;;14.60;6.78;;;;;;;2.24;70.23;99951.72;4978252;28;20031;-67
2023/02/03 06:24:47;;;;;;;8.98;5.35;;;;;;;2.35;69.92;99960.88;4982921;28;20034;-66
2023/02/03 06:27:14;;;;;;;9.90;6.15;;;;;;;2.50;69.09;99964.81;4982656;28;20113;-67
2023/02/03 06:29:40;;;;;;;11.10;5.68;;;;;;;2.52;69.35;99959.84;4985716;28;20105;-69
2023/02/03 06:32:06;;;;;;;12.38;6.32;;;;;;;2.60;68.61;99969.56;4984082;28;20019;-69
2023/02/03 06:34:32;;;;;;;11.10;6.07;;;;;;;2.73;68.00;99974.59;4980977;28;20110;-69
2023/02/03 06:36:58;;;;;;;12.75;7.18;;;;;;;2.86;68.33;99986.25;4986287;28;20030;-69
2023/02/03 06:39:23;;;;;;;5.03;4.53;;;;;;;3.00;67.51;99992.91;4985037;28;20031;-68
2023/02/03 06:41:50;;;;;;;7.65;4.75;;;;;;;3.12;66.82;99992.66;4985799;28;20418;-69
2023/02/03 06:44:16;;;;;;;7.30;4.13;;;;;;;3.11;67.30;99985.47;4984450;28;20418;-68
2023/02/03 06:46:42;;;;;;;9.63;6.13;;;;;;;3.24;67.25;99995.19;4981637;28;20051;-69
2023/02/03 06:49:07;;;;;;;10.63;8.68;;;;;;;3.34;67.05;100006.28;4981836;28;20129;-68
2023/02/03 06:51:33;;;;;;;8.80;7.15;;;;;;;3.36;67.49;100009.59;4987407;28;20015;-66
2023/02/03 06:53:58;;;;;;;8.50;7.43;;;;;;;3.38;67.72;100017.63;4987175;28;20027;-67
2023/02/03 06:56:24;;;;;;;14.82;7.78;;;;;;;3.32;66.84;100021.47;4988521;28;20497;-67
2023/02/03 06:58:49;;;;;;;18.38;12.27;;;;;;;3.35;67.07;100029.22;4993619;28;20030;-68
2023/02/03 07:01:15;;;;;;;19.95;12.38;;;;;;;3.30;67.03;100027.25;4989155;28;20033;-72
2023/02/03 07:03:40;;;;;;;25.75;13.60;;;;;;;3.30;67.75;100040.28;4977217;28;20141;-71
2023/02/03 07:06:06;;;;;;;32.38;17.45;;;;;;;3.30;68.44;100043.03;4984159;28;20485;-68
2023/02/03 07:08:32;;;;;;;55.15;27.52;;;;;;;3.28;68.46;100050.78;4986446;28;20502;-71
2023/02/03 07:10:57;;;;;;;34.20;17.63;;;;;;;3.29;67.77;100044.97;4988449;28;20030;-73
2023/02/03 07:13:23;;;;;;;13.07;9.23;;;;;;;3.30;66.68;100037.50;4990423;28;20513;-71
2023/02/03 07:15:49;;;;;;;9.68;7.47;;;;;;;3.34;67.25;100060.75;4992578;28;20208;-71
2023/02/03 07:18:15;;;;;;;10.98;8.18;;;;;;;3.31;67.57;100051.03;4981593;28;20109;-71
2023/02/03 07:20:40;;;;;;;14.60;8.40;;;;;;;3.33;67.42;100056.31;4984691;28;20025;-73
2023/02/03 07:23:06;;;;;;;16.20;11.75;;;;;;;3.37;67.73;100060.19;4974727;28;20027;-71
2023/02/03 07:25:31;;;;;;;14.18;10.73;;;;;;;3.36;67.98;100058.53;4978540;28;20022;-71
2023/02/03 07:27:57;;;;;;;11.55;9.43;;;;;;;3.34;67.69;100052.44;4992134;28;20124;-73
2023/02/03 07:30:22;;;;;;;25.63;13.30;;;;;;;3.40;68.76;100058.81;4989688;28;20025;-72
2023/02/03 07:32:49;;;;;;;24.42;11.98;;;;;;;3.39;68.67;100052.47;4986497;28;20472;-70
2023/02/03 07:35:15;;;;;;;29.60;13.52;;;;;;;3.42;68.98;100048.31;4989827;28;20037;-70
2023/02/03 07:37:42;;;;;;;18.65;9.80;;;;;;;3.42;68.66;100051.06;4991576;28;20449;-72
2023/02/03 07:40:09;;;;;;;13.57;7.65;;;;;;;3.67;67.87;100052.22;4995123;28;20181;-72
2023/02/03 07:42:34;;;;;;;14.60;9.48;;;;;;;4.10;67.40;100051.97;4983230;28;20034;-72
2023/02/03 07:45:00;;;;;;;22.55;8.88;;;;;;;4.35;66.19;100056.69;4999483;28;20041;-72
2023/02/03 07:47:25;;;;;;;17.85;9.80;;;;;;;4.58;64.96;100052.47;4990357;28;20088;-73
2023/02/03 07:49:51;;;;;;;13.85;8.25;;;;;;;4.78;63.40;100065.47;4983544;28;20034;-72
2023/02/03 07:52:16;;;;;;;19.83;14.20;;;;;;;4.78;61.62;100059.91;4989120;28;20034;-73
2023/02/03 07:54:42;;;;;;;23.15;11.88;;;;;;;4.96;61.52;100062.38;4990587;28;20493;-69
2023/02/03 07:57:08;;;;;;;19.52;12.15;;;;;;;5.06;61.52;100070.63;4989069;28;20651;-73
2023/02/03 07:59:33;;;;;;;11.70;7.63;;;;;;;5.15;61.12;100063.38;4975099;28;20770;-74
2023/02/03 08:01:59;;;;;;;9.85;6.45;;;;;;;5.18;60.87;100065.56;4986910;28;20030;-72
2023/02/03 08:04:24;;;;;;;15.88;6.75;;;;;;;5.40;60.60;100064.38;4983346;28;20035;-72
2023/02/03 08:06:50;;;;;;;12.60;8.00;;;;;;;5.47;60.04;100064.03;4982171;28;20029;-71
2023/02/03 08:09:15;;;;;;;20.55;9.65;;;;;;;5.52;59.31;100077.91;4990143;28;20041;-71
2023/02/03 08:11:41;;;;;;;11.23;6.60;;;;;;;5.71;59.29;100064.19;4987572;28;20034;-69
2023/02/03 08:14:06;;;;;;;7.78;6.28;;;;;;;5.56;59.41;100069.84;4987197;28;20125;-69
2023/02/03 08:16:32;;;;;;;11.80;5.57;;;;;;;5.23;58.97;100075.00;4991711;28;20417;-69
2023/02/03 08:18:57;;;;;;;8.68;5.15;;;;;;;4.94;60.69;100064.56;4989173;28;20038;-69
2023/02/03 08:21:23;;;;;;;7.10;5.13;;;;;;;4.90;60.27;100061.56;4981898;28;20474;-70
2023/02/03 08:23:48;;;;;;;15.80;7.30;;;;;;;5.03;61.12;100068.41;4986750;28;20066;-72
2023/02/03 08:26:14;;;;;;;15.65;8.13;;;;;;;5.19;59.54;100072.81;4988902;28;20030;-71
2023/02/03 08:28:40;;;;;;;21.88;11.52;;;;;;;5.48;58.48;100074.03;4989219;28;20042;-71
2023/02/03 08:31:10;;;;;;;15.00;8.02;;;;;;;5.64;57.93;100082.28;4989922;28;20421;-71
2023/02/03 08:33:35;;;;;;;12.30;7.70;;;;;;;5.69;57.11;100077.53;4989242;28;20041;-70
2023/02/03 08:36:04;;;;;;;9.65;5.25;;;;;;;5.82;55.54;100078.00;4973736;28;20046;-70
2023/02/03 08:38:30;;;;;;;6.43;3.97;;;;;;;5.68;54.80;100081.44;4971559;28;20117;-69
2023/02/03 08:40:56;;;;;;;5.90;3.70;;;;;;;5.73;54.53;100086.94;4984938;28;20032;-69
2023/02/03 08:43:21;;;;;;;5.55;4.95;;;;;;;5.81;53.80;100090.22;4988281;28;20073;-71
2023/02/03 08:45:48;;;;;;;6.18;4.03;;;;;;;5.75;53.71;100087.47;4979004;28;20058;-71
2023/02/03 08:48:14;;;;;;;18.27;5.75;;;;;;;6.03;54.24;100101.78;4990597;28;20406;-73
2023/02/03 08:50:44;;;;;;;10.40;5.53;;;;;;;6.31;53.95;100092.91;4988035;28;20532;-71
2023/02/03 08:53:10;;;;;;;4.85;3.47;;;;;;;6.19;51.04;100096.09;4984663;28;20034;-72
2023/02/03 08:55:39;;;;;;;12.02;4.75;;;;;;;6.08;50.79;100094.50;4987684;28;20030;-68
2023/02/03 08:58:04;;;;;;;7.10;4.50;;;;;;;6.30;52.29;100097.66;4984193;28;20224;-68
2023/02/03 09:00:30;;;;;;;5.05;4.22;;;;;;;6.28;52.11;100094.34;4988742;28;20034;-69
2023/02/03 09:02:55;;;;;;;6.93;4.45;;;;;;;6.22;51.85;100095.50;4977919;28;20039;-69
2023/02/03 09:05:21;;;;;;;4.40;3.35;;;;;;;6.26;50.23;100101.31;4987812;28;20037;-69
2023/02/03 09:07:47;;;;;;;10.27;4.07;;;;;;;6.29;51.98;100101.56;4990630;28;20480;-69
2023/02/03 09:10:12;;;;;;;7.43;4.07;;;;;;;6.37;50.18;100102.03;4983387;28;20043;-72
2023/02/03 09:12:37;;;;;;;4.97;3.53;;;;;;;6.24;50.40;100096.03;4977474;28;20030;-70
2023/02/03 09:15:03;;;;;;;6.70;4.15;;;;;;;6.44;50.39;100088.66;4987926;28;20053;-69
2023/02/03 09:17:29;;;;;;;7.05;3.90;;;;;;;6.42;50.88;100088.94;4982312;28;20038;-69
2023/02/03 09:19:54;;;;;;;6.70;4.40;;;;;;;6.60;50.05;100089.34;4978773;28;20034;-69
2023/02/03 09:22:20;;;;;;;7.57;4.78;;;;;;;6.53;48.15;100078.56;4986338;28;20034;-68
2023/02/03 09:24:45;;;;;;;6.38;3.30;;;;;;;6.52;47.82;100063.00;4982499;28;20034;-73
2023/02/03 09:27:11;;;;;;;6.32;3.75;;;;;;;6.28;48.26;100047.13;4985890;28;20027;-69
2023/02/03 09:29:36;;;;;;;5.43;3.88;;;;;;;6.55;47.55;100070.75;4982162;28;20413;-69
2023/02/03 09:32:09;;;;;;;6.70;3.92;;;;;;;6.14;46.79;100077.50;4988015;28;20035;-67
2023/02/03 09:34:34;;;;;;;5.78;4.82;;;;;;;5.92;47.75;100079.88;4975454;28;20489;-67
2023/02/03 09:37:00;;;;;;;5.30;3.63;;;;;;;6.03;48.24;100071.22;4982814;28;20057;-67
2023/02/03 09:39:26;;;;;;;9.35;3.90;;;;;;;6.15;47.30;100073.63;4974365;28;20102;-67
2023/02/03 09:42:10;;;;;;;8.10;5.28;;;;;;;6.01;46.80;100084.53;4980176;28;20037;-67
2023/02/03 09:44:45;;;;;;;31.00;5.75;;;;;;;5.79;46.29;100093.28;4985437;28;20488;-70
2023/02/03 09:47:27;;;;;;;6.03;4.32;;;;;;;5.71;47.98;100086.41;4988770;28;20046;-68
2023/02/03 09:49:57;;;;;;;9.98;5.68;;;;;;;5.70;48.61;100081.97;4990244;28;20045;-68
2023/02/03 09:52:25;;;;;;;12.87;7.97;;;;;;;5.77;48.84;100092.75;4987559;28;20037;-68
2023/02/03 09:55:16;;;;;;;10.57;5.50;;;;;;;5.59;47.91;100089.50;4985968;28;20030;-68
2023/02/03 09:58:11;;;;;;;16.55;8.95;;;;;;;5.59;48.30;100099.78;4989549;28;20108;-69
2023/02/03 10:01:05;;;;;;;9.02;5.72;;;;;;;5.60;46.72;100093.94;4990116;28;20019;-68
2023/02/03 10:03:42;;;;;;;9.20;6.22;;;;;;;5.60;48.22;100098.69;4980588;28;20034;-66
2023/02/03 10:06:29;;;;;;;9.82;6.10;;;;;;;5.66;49.04;100089.19;4983816;28;20092;-68
2023/02/03 10:09:03;;;;;;;29.02;5.60;;;;;;;5.69;46.66;100094.19;4986647;28;20035;-68
2023/02/03 10:11:56;;;;;;;6.05;4.50;;;;;;;6.08;47.66;100087.00;4982109;28;20034;-69
2023/02/03 10:14:24;;;;;;;11.25;6.22;;;;;;;5.99;46.19;100081.19;4976153;28;20026;-70
2023/02/03 10:16:52;;;;;;;19.33;10.77;;;;;;;6.21;46.13;100087.44;4985786;28;20544;-67
2023/02/03 10:19:35;;;;;;;16.10;9.40;;;;;;;6.57;46.24;100078.78;4970874;28;20054;-68
2023/02/03 10:22:03;;;;;;;8.18;4.38;;;;;;;6.58;44.40;100058.22;4983496;28;20030;-68
2023/02/03 10:24:43;;;;;;;6.22;5.38;;;;;;;6.99;45.88;100059.69;4970340;28;20027;-69
2023/02/03 10:27:23;;;;;;;3.42;3.13;;;;;;;6.92;44.00;100050.91;4988149;28;20040;-68
2023/02/03 10:30:04;;;;;;;4.05;3.45;;;;;;;7.11;44.60;100054.53;4976908;28;20042;-69
2023/02/03 10:32:30;;;;;;;4.10;3.63;;;;;;;7.16;44.21;100036.97;4979944;28;20510;-69
2023/02/03 10:34:55;;;;;;;5.05;4.38;;;;;;;7.19;44.14;100038.31;4987381;28;20092;-68
2023/02/03 10:37:49;;;;;;;9.13;3.58;;;;;;;7.05;42.55;100044.63;4990051;28;20050;-68
2023/02/03 10:40:15;;;;;;;13.60;3.58;;;;;;;6.88;42.67;100045.94;4991214;28;20041;-67
2023/02/03 10:45:32;;;;;;;4.05;2.70;;;;;;;7.13;42.03;100041.19;4990235;28;20081;-68
2023/02/03 10:47:59;;;;;;;3.83;2.47;;;;;;;7.33;42.24;100033.69;4992120;28;20093;-70
2023/02/03 10:50:32;;;;;;;9.57;4.15;;;;;;;7.29;43.58;100033.44;4986886;28;20031;-69
2023/02/03 10:53:21;;;;;;;4.20;3.80;;;;;;;7.36;43.06;100043.38;4989269;28;20485;-70
2023/02/03 10:56:24;;;;;;;4.85;2.88;;;;;;;7.25;41.21;100051.88;4992000;28;20019;-67
2023/02/03 10:58:58;;;;;;;6.30;4.28;;;;;;;7.50;42.75;100046.25;4970571;28;20042;-68
2023/02/03 11:01:46;;;;;;;6.07;3.97;;;;;;;7.78;42.40;100038.06;4989925;28;20022;-68
2023/02/03 11:04:27;;;;;;;3.65;3.35;;;;;;;7.63;42.18;100030.75;4991319;28;20061;-68
2023/02/03 11:07:05;;;;;;;7.28;3.45;;;;;;;7.71;41.96;100014.19;4993056;28;20513;-67
2023/02/03 11:09:37;;;;;;;5.82;3.88;;;;;;;7.72;40.94;100023.38;4983700;28;20097;-69
2023/02/03 11:12:15;;;;;;;5.18;4.00;;;;;;;7.79;41.29;100023.00;4990381;28;20038;-68
2023/02/03 11:14:44;;;;;;;6.15;4.70;;;;;;;7.63;40.45;100014.88;4986979;28;20037;-69
2023/02/03 11:17:21;;;;;;;6.13;3.65;;;;;;;7.85;40.57;100019.00;4986795;28;20030;-68
2023/02/03 11:19:49;;;;;;;7.05;3.22;;;;;;;8.10;40.09;100016.94;4987261;28;20102;-69
2023/02/03 11:22:34;;;;;;;7.38;3.60;;;;;;;8.10;40.85;100005.78;4987501;28;20060;-69
2023/02/03 11:25:02;;;;;;;5.22;3.90;;;;;;;7.78;40.84;100005.44;4990459;28;20058;-68
2023/02/03 11:27:30;;;;;;;4.15;3.47;;;;;;;8.06;40.54;100001.94;4994758;28;20512;-68
2023/02/03 11:30:28;;;;;;;6.32;4.78;;;;;;;8.22;39.68;99997.75;4995935;28;20096;-68
2023/02/03 11:32:55;;;;;;;2.63;2.33;;;;;;;8.31;38.95;99997.03;4984784;28;20095;-68
2023/02/03 11:35:26;;;;;;;4.53;2.72;;;;;;;8.29;38.73;99994.56;4994116;28;20057;-68
2023/02/03 11:37:57;;;;;;;2.58;2.38;;;;;;;7.93;37.78;99995.22;4993471;28;20026;-68
2023/02/03 11:40:25;;;;;;;3.28;2.85;;;;;;;8.05;38.72;100001.13;4984839;28;20027;-68
2023/02/03 11:42:50;;;;;;;7.50;3.65;;;;;;;7.54;38.19;99988.84;4984733;28;20026;-68
2023/02/03 11:45:36;;;;;;;4.15;3.13;;;;;;;7.51;37.87;99981.91;4993449;28;20057;-69
2023/02/03 11:48:20;;;;;;;8.68;3.83;;;;;;;7.39;38.95;99981.56;4973735;28;20560;-68
2023/02/03 11:50:51;;;;;;;6.43;3.75;;;;;;;7.47;39.57;99985.59;4989069;28;20022;-68